createdAt,value
2023-01-05T00:01:41.941Z,5.68
2023-01-05T00:04:08.894Z,5.43
2023-01-05T00:06:37.153Z,4.95
2023-01-05T00:09:04.467Z,4.28
2023-01-05T00:11:49.872Z,5.43
2023-01-05T00:14:41.370Z,4.70
2023-01-05T00:17:30.377Z,4.55
2023-01-05T00:20:15.905Z,6.32
2023-01-05T00:22:45.916Z,6.03
2023-01-05T00:25:15.177Z,4.13
2023-01-05T00:27:43.584Z,4.85
2023-01-05T00:30:13.119Z,4.50
2023-01-05T00:32:41.251Z,4.68
2023-01-05T00:35:08.507Z,5.57
2023-01-05T00:37:36.486Z,4.65
2023-01-05T00:40:03.715Z,4.43
2023-01-05T00:42:30.811Z,5.60
2023-01-05T00:44:57.542Z,5.57
2023-01-05T00:47:24.232Z,4.63
2023-01-05T00:49:50.897Z,6.07
2023-01-05T00:52:17.642Z,5.65
2023-01-05T00:54:44.249Z,4.22
2023-01-05T00:57:12.289Z,3.78
2023-01-05T00:59:39.604Z,5.15
2023-01-05T01:02:06.799Z,4.50
2023-01-05T01:04:34.644Z,4.97
2023-01-05T01:07:01.811Z,4.03
2023-01-05T01:09:29.022Z,4.43
2023-01-05T01:11:55.867Z,5.05
2023-01-05T01:14:23.043Z,6.78
2023-01-05T01:16:50.084Z,6.70
2023-01-05T01:19:20.089Z,5.32
2023-01-05T01:21:48.320Z,4.60
2023-01-05T01:24:20.254Z,5.30
2023-01-05T01:26:47.563Z,4.75
2023-01-05T01:29:14.267Z,5.35
2023-01-05T01:31:40.873Z,5.53
2023-01-05T01:34:07.542Z,5.40
2023-01-05T01:36:34.279Z,4.78
2023-01-05T01:39:01.285Z,6.10
2023-01-05T01:41:32.791Z,5.22
2023-01-05T01:43:59.811Z,4.85
2023-01-05T01:46:28.456Z,4.85
2023-01-05T01:49:00.146Z,6.53
2023-01-05T01:51:32.201Z,5.05
2023-01-05T01:54:01.418Z,5.20
2023-01-05T01:56:35.926Z,5.15
2023-01-05T01:59:02.775Z,4.88
2023-01-05T02:01:30.278Z,5.05
2023-01-05T02:03:57.289Z,4.88
2023-01-05T02:06:23.997Z,5.55
2023-01-05T02:08:50.883Z,5.05
2023-01-05T02:11:36.038Z,5.18
2023-01-05T02:14:14.143Z,5.05
2023-01-05T02:16:55.958Z,6.25
2023-01-05T02:19:37.588Z,5.93
2023-01-05T02:22:40.834Z,5.25
2023-01-05T02:25:25.624Z,6.05
2023-01-05T02:28:13.644Z,4.95
2023-01-05T02:31:13.706Z,5.15
2023-01-05T02:33:55.835Z,5.25
2023-01-05T02:37:09.299Z,5.47
2023-01-05T02:40:13.142Z,4.78
2023-01-05T02:42:42.335Z,6.47
2023-01-05T02:45:09.425Z,6.60
2023-01-05T02:47:43.660Z,5.72
2023-01-05T02:50:31.682Z,6.50
2023-01-05T02:53:13.490Z,5.55
2023-01-05T02:56:12.377Z,5.30
2023-01-05T02:58:46.301Z,5.00
2023-01-05T03:01:21.628Z,5.13
2023-01-05T03:03:58.232Z,4.97
2023-01-05T03:06:28.045Z,5.07
2023-01-05T03:09:00.266Z,6.03
2023-01-05T03:11:56.592Z,6.35
2023-01-05T03:14:32.216Z,6.85
2023-01-05T03:17:02.362Z,5.80
2023-01-05T03:19:36.466Z,5.20
2023-01-05T03:22:30.920Z,5.80
2023-01-05T03:25:17.273Z,5.50
2023-01-05T03:28:05.645Z,4.40
2023-01-05T03:31:16.974Z,6.63
2023-01-05T03:34:08.371Z,5.00
2023-01-05T03:36:44.641Z,8.10
2023-01-05T03:39:12.775Z,5.25
2023-01-05T03:41:40.046Z,5.63
2023-01-05T03:44:08.551Z,4.90
2023-01-05T03:46:41.269Z,4.95
2023-01-05T03:49:09.483Z,5.18
2023-01-05T03:51:41.694Z,5.93
2023-01-05T03:54:10.115Z,4.72
2023-01-05T03:56:38.382Z,4.82
2023-01-05T03:59:05.899Z,4.82
2023-01-05T04:01:33.137Z,4.00
2023-01-05T04:04:00.864Z,5.03
2023-01-05T04:06:28.191Z,4.68
2023-01-05T04:08:54.955Z,4.75
2023-01-05T04:11:23.966Z,5.47
2023-01-05T04:14:00.607Z,4.50
2023-01-05T04:16:28.679Z,4.70
2023-01-05T04:18:58.429Z,5.95
2023-01-05T04:21:25.819Z,5.72
2023-01-05T04:23:55.151Z,4.43
2023-01-05T04:26:22.953Z,5.07
2023-01-05T04:28:50.921Z,4.65
2023-01-05T04:31:20.619Z,4.75
2023-01-05T04:33:48.785Z,5.50
2023-01-05T04:36:19.106Z,4.32
2023-01-05T04:38:45.831Z,6.65
2023-01-05T04:41:13.575Z,5.90
2023-01-05T04:43:42.607Z,5.72
2023-01-05T04:46:09.682Z,5.20
2023-01-05T04:48:37.731Z,5.55
2023-01-05T04:51:05.249Z,4.30
2023-01-05T04:53:35.375Z,5.13
2023-01-05T04:56:04.250Z,5.47
2023-01-05T04:58:36.156Z,5.28
2023-01-05T05:01:02.950Z,5.95
2023-01-05T05:03:33.375Z,4.90
2023-01-05T05:06:01.448Z,4.88
2023-01-05T05:08:29.390Z,5.65
2023-01-05T05:10:56.689Z,6.45
2023-01-05T05:13:23.828Z,5.25
2023-01-05T05:15:52.912Z,5.13
2023-01-05T05:18:21.227Z,5.43
2023-01-05T05:20:52.243Z,5.85
2023-01-05T05:23:23.410Z,7.32
2023-01-05T05:25:51.195Z,5.10
2023-01-05T05:28:20.323Z,5.22
2023-01-05T05:30:49.066Z,5.55
2023-01-05T05:33:15.716Z,5.68
2023-01-05T05:35:42.358Z,6.03
2023-01-05T05:38:09.006Z,5.38
2023-01-05T05:40:35.712Z,6.50
2023-01-05T05:43:02.334Z,6.47
2023-01-05T05:45:28.960Z,6.05
2023-01-05T05:47:55.692Z,7.28
2023-01-05T05:50:22.372Z,6.93
2023-01-05T05:52:49.381Z,5.43
2023-01-05T05:55:16.131Z,6.07
2023-01-05T05:57:42.714Z,6.40
2023-01-05T06:00:09.953Z,5.35
2023-01-05T06:02:39.983Z,6.80
2023-01-05T06:05:07.181Z,5.55
2023-01-05T06:07:33.857Z,6.05
2023-01-05T06:10:00.509Z,6.65
2023-01-05T06:12:27.349Z,6.63
2023-01-05T06:14:54.141Z,5.68
2023-01-05T06:17:20.788Z,6.85
2023-01-05T06:19:47.632Z,5.65
2023-01-05T06:22:14.303Z,7.90
2023-01-05T06:24:40.925Z,6.10
2023-01-05T06:27:07.686Z,6.15
2023-01-05T06:29:34.342Z,6.32
2023-01-05T06:32:00.954Z,8.00
2023-01-05T06:34:27.631Z,7.07
2023-01-05T06:37:01.901Z,6.35
2023-01-05T06:39:29.084Z,7.35
2023-01-05T06:41:55.746Z,5.65
2023-01-05T06:44:22.381Z,7.28
2023-01-05T06:46:48.981Z,8.95
2023-01-05T06:49:15.640Z,6.60
2023-01-05T06:51:42.272Z,7.03
2023-01-05T06:54:40.440Z,7.45
2023-01-05T06:57:08.017Z,7.15
2023-01-05T07:00:04.677Z,6.70
2023-01-05T07:02:33.306Z,6.22
2023-01-05T07:04:59.973Z,6.18
2023-01-05T07:07:26.616Z,6.50
2023-01-05T07:09:53.318Z,7.18
2023-01-05T07:12:20.265Z,6.13
2023-01-05T07:14:46.951Z,6.40
2023-01-05T07:17:13.762Z,7.05
2023-01-05T07:19:40.426Z,10.52
2023-01-05T07:22:07.352Z,6.55
2023-01-05T07:24:34.066Z,6.82
2023-01-05T07:27:04.488Z,5.78
2023-01-05T07:29:36.033Z,7.07
2023-01-05T07:32:02.800Z,6.97
2023-01-05T07:34:29.555Z,7.30
2023-01-05T07:36:56.244Z,6.25
2023-01-05T07:39:22.895Z,6.35
2023-01-05T07:41:49.649Z,6.70
2023-01-05T07:44:18.277Z,6.57
2023-01-05T07:46:45.142Z,5.47
2023-01-05T07:49:11.762Z,6.65
2023-01-05T07:51:38.508Z,6.75
2023-01-05T07:54:05.235Z,6.28
2023-01-05T07:56:31.899Z,6.93
2023-01-05T07:58:59.449Z,6.80
2023-01-05T08:01:26.238Z,7.10
2023-01-05T08:03:54.080Z,6.78
2023-01-05T08:06:21.485Z,6.18
2023-01-05T08:08:48.342Z,6.72
2023-01-05T08:11:17.033Z,6.70
2023-01-05T08:14:00.428Z,7.22
2023-01-05T08:16:29.164Z,6.68
2023-01-05T08:18:57.144Z,7.28
2023-01-05T08:21:23.839Z,5.97
2023-01-05T08:23:50.717Z,7.15
2023-01-05T08:26:19.713Z,7.03
2023-01-05T08:28:46.741Z,7.50
2023-01-05T08:31:26.310Z,6.75
2023-01-05T08:34:00.102Z,7.78
2023-01-05T08:36:27.706Z,6.63
2023-01-05T08:38:55.096Z,7.38
2023-01-05T08:41:24.429Z,6.88
2023-01-05T08:43:59.617Z,8.18
2023-01-05T08:46:28.714Z,7.35
2023-01-05T08:48:58.012Z,8.68
2023-01-05T08:51:24.940Z,6.80
2023-01-05T08:53:52.121Z,8.02
2023-01-05T08:56:19.628Z,8.07
2023-01-05T08:58:46.502Z,6.68
2023-01-05T09:01:18.512Z,7.15
2023-01-05T09:03:45.269Z,6.20
2023-01-05T09:06:13.099Z,7.88
2023-01-05T09:08:41.720Z,6.85
2023-01-05T09:11:10.097Z,6.97
2023-01-05T09:13:37.408Z,7.60
2023-01-05T09:16:09.483Z,6.43
2023-01-05T09:18:37.267Z,7.28
2023-01-05T09:21:05.949Z,6.63
2023-01-05T09:23:33.253Z,6.97
2023-01-05T09:26:00.264Z,7.10
2023-01-05T09:28:26.972Z,7.07
2023-01-05T09:30:53.637Z,8.15
2023-01-05T09:33:20.304Z,6.40
2023-01-05T09:35:54.827Z,7.32
2023-01-05T09:38:21.788Z,7.63
2023-01-05T09:40:50.980Z,6.15
2023-01-05T09:43:38.901Z,7.65
2023-01-05T09:46:13.477Z,8.00
2023-01-05T09:48:44.048Z,7.03
2023-01-05T09:51:10.918Z,6.35
2023-01-05T09:53:39.961Z,6.18
2023-01-05T09:56:42.053Z,7.88
2023-01-05T09:59:07.764Z,6.72
2023-01-05T10:01:37.036Z,7.57
2023-01-05T10:04:31.445Z,6.43
2023-01-05T10:07:15.207Z,7.95
2023-01-05T10:09:42.031Z,6.85
2023-01-05T10:12:27.372Z,7.93
2023-01-05T10:15:16.259Z,6.40
2023-01-05T10:17:44.777Z,7.13
2023-01-05T10:20:46.548Z,6.78
2023-01-05T10:23:40.814Z,7.68
2023-01-05T10:26:19.864Z,6.78
2023-01-05T10:29:05.787Z,7.13
2023-01-05T10:31:59.093Z,7.35
2023-01-05T10:34:34.600Z,7.40
2023-01-05T10:37:31.092Z,7.05
2023-01-05T10:40:21.444Z,6.72
2023-01-05T10:43:12.149Z,8.15
2023-01-05T10:46:03.182Z,8.27
2023-01-05T10:48:33.313Z,8.55
2023-01-05T10:51:01.068Z,6.57
2023-01-05T10:53:29.066Z,8.20
2023-01-05T10:56:13.753Z,7.55
2023-01-05T10:58:44.010Z,7.65
2023-01-05T11:01:19.648Z,8.07
2023-01-05T11:07:52.962Z,8.73
2023-01-05T11:10:55.422Z,8.52
2023-01-05T11:13:27.765Z,6.40
2023-01-05T11:15:57.132Z,7.88
2023-01-05T11:18:44.506Z,8.48
2023-01-05T11:21:13.193Z,7.55
2023-01-05T11:23:51.632Z,8.52
2023-01-05T11:26:18.168Z,7.50
2023-01-05T11:29:13.400Z,8.32
2023-01-05T11:31:48.184Z,7.50
2023-01-05T11:34:38.842Z,8.20
2023-01-05T11:37:13.845Z,7.53
2023-01-05T11:39:50.968Z,8.80
2023-01-05T11:42:24.893Z,9.88
2023-01-05T11:44:56.785Z,7.45
2023-01-05T11:47:27.995Z,7.07
2023-01-05T11:50:14.890Z,7.20
2023-01-05T11:52:48.566Z,7.72
2023-01-05T11:55:30.761Z,8.25
2023-01-05T11:58:26.898Z,6.95
2023-01-05T12:01:10.088Z,7.20
2023-01-05T12:03:59.073Z,7.72
2023-01-05T12:06:55.881Z,8.10
2023-01-05T12:09:35.084Z,8.98
2023-01-05T12:12:04.576Z,8.05
2023-01-05T12:14:49.990Z,7.13
2023-01-05T12:17:38.585Z,8.30
2023-01-05T12:20:39.601Z,7.82
2023-01-05T12:23:52.641Z,6.68
2023-01-05T12:26:34.179Z,7.50
2023-01-05T12:35:47.145Z,7.20
2023-01-05T12:38:28.467Z,7.70
2023-01-05T12:41:28.878Z,7.07
2023-01-05T12:44:38.338Z,7.30
2023-01-05T12:47:08.077Z,8.10
2023-01-05T12:49:51.266Z,9.15
2023-01-05T12:52:39.242Z,6.72
2023-01-05T12:55:15.597Z,6.80
2023-01-05T12:57:54.139Z,6.82
2023-01-05T13:00:21.813Z,7.35
2023-01-05T13:03:11.340Z,6.80
2023-01-05T13:05:59.770Z,7.03
2023-01-05T13:08:29.787Z,6.78
2023-01-05T13:11:22.136Z,6.63
2023-01-05T13:13:58.714Z,7.80
2023-01-05T13:16:49.332Z,6.82
2023-01-05T13:19:40.260Z,6.90
2023-01-05T13:22:23.270Z,6.30
2023-01-05T13:25:18.408Z,6.63
2023-01-05T13:27:47.444Z,6.68
2023-01-05T13:30:31.086Z,6.45
2023-01-05T13:33:32.036Z,6.00
2023-01-05T13:36:11.159Z,6.57
2023-01-05T13:47:30.858Z,5.90
2023-01-05T13:54:49.496Z,5.45
2023-01-05T13:57:24.632Z,6.32
2023-01-05T14:12:49.613Z,6.78
2023-01-05T14:15:42.180Z,6.95
2023-01-05T14:18:13.643Z,7.63
2023-01-05T14:20:49.116Z,7.70
2023-01-05T14:23:25.405Z,7.88
2023-01-05T14:26:04.101Z,7.75
2023-01-05T14:28:30.798Z,7.15
2023-01-05T14:31:16.608Z,6.55
2023-01-05T14:33:49.739Z,7.35
2023-01-05T14:36:34.438Z,6.63
2023-01-05T14:39:26.565Z,8.02
2023-01-05T14:42:05.024Z,7.78
2023-01-05T14:44:34.237Z,7.45
2023-01-05T14:47:01.866Z,6.88
2023-01-05T14:49:52.310Z,8.65
2023-01-05T14:52:40.249Z,6.18
2023-01-05T14:55:37.693Z,6.50
2023-01-05T14:58:15.275Z,8.18
2023-01-05T15:00:58.189Z,7.00
2023-01-05T15:03:45.991Z,6.95
2023-01-05T15:06:21.862Z,6.63
2023-01-05T15:09:16.142Z,6.22
2023-01-05T15:11:54.683Z,6.18
2023-01-05T15:14:42.508Z,6.72
2023-01-05T15:17:27.824Z,8.70
2023-01-05T15:20:15.593Z,9.30
2023-01-05T15:23:10.020Z,6.20
2023-01-05T15:26:02.551Z,6.65
2023-01-05T15:31:50.058Z,6.85
2023-01-05T15:34:41.801Z,7.22
2023-01-05T15:37:21.487Z,6.05
2023-01-05T15:39:51.401Z,8.32
2023-01-05T15:42:27.865Z,6.68
2023-01-05T15:44:55.692Z,6.40
2023-01-05T15:47:26.678Z,5.75
2023-01-05T15:49:59.699Z,6.25
2023-01-05T15:52:29.689Z,6.55
2023-01-05T15:55:02.354Z,7.63
2023-01-05T15:57:29.143Z,6.15
2023-01-05T15:59:56.859Z,6.65
2023-01-05T16:02:26.516Z,6.85
2023-01-05T16:05:14.753Z,6.60
2023-01-05T16:08:06.409Z,6.38
2023-01-05T16:10:44.746Z,6.57
2023-01-05T16:13:18.856Z,7.35
2023-01-05T16:15:50.121Z,5.78
2023-01-05T16:18:23.456Z,7.90
2023-01-05T16:20:52.790Z,5.97
2023-01-05T16:23:30.663Z,7.82
2023-01-05T16:25:59.203Z,6.53
2023-01-05T16:28:26.514Z,5.88
2023-01-05T16:30:54.857Z,7.30
2023-01-05T16:33:39.172Z,6.72
2023-01-05T16:36:07.675Z,6.50
2023-01-05T16:38:34.827Z,6.25
2023-01-05T16:41:08.954Z,7.43
2023-01-05T16:43:50.633Z,7.20
2023-01-05T16:46:20.157Z,7.63
2023-01-05T16:48:53.541Z,10.02
2023-01-05T16:51:22.842Z,12.00
2023-01-05T16:53:58.459Z,9.60
2023-01-05T16:56:34.848Z,7.55
2023-01-05T16:59:31.606Z,9.13
2023-01-05T17:01:58.806Z,9.40
2023-01-05T17:04:25.639Z,9.98
2023-01-05T17:06:53.131Z,9.18
2023-01-05T17:09:22.832Z,9.02
2023-01-05T17:11:49.619Z,22.48
2023-01-05T17:14:18.143Z,11.07
2023-01-05T17:16:44.842Z,12.57
2023-01-05T17:19:16.659Z,8.07
2023-01-05T17:21:49.213Z,13.98
2023-01-05T17:24:15.952Z,8.55
2023-01-05T17:26:45.193Z,9.13
2023-01-05T17:29:27.801Z,6.72
2023-01-05T17:31:55.345Z,9.20
2023-01-05T17:34:22.892Z,7.53
2023-01-05T17:36:53.110Z,7.32
2023-01-05T17:39:21.393Z,7.55
2023-01-05T17:41:48.383Z,7.25
2023-01-05T17:44:15.587Z,7.55
2023-01-05T17:46:44.526Z,8.65
2023-01-05T17:49:20.401Z,8.75
2023-01-05T17:51:47.255Z,7.40
2023-01-05T17:54:13.948Z,8.07
2023-01-05T17:56:40.580Z,9.98
2023-01-05T17:59:07.502Z,8.15
2023-01-05T18:01:34.355Z,8.48
2023-01-05T18:04:01.323Z,9.90
2023-01-05T18:06:28.460Z,9.90
2023-01-05T18:08:55.326Z,8.32
2023-01-05T18:11:22.254Z,9.50
2023-01-05T18:13:49.131Z,9.52
2023-01-05T18:16:16.259Z,9.70
2023-01-05T18:18:43.071Z,10.18
2023-01-05T18:21:09.849Z,11.20
2023-01-05T18:23:36.628Z,10.82
2023-01-05T18:26:09.221Z,11.77
2023-01-05T18:28:37.145Z,11.02
2023-01-05T18:31:14.449Z,10.55
2023-01-05T18:33:41.457Z,11.05
2023-01-05T18:36:10.334Z,10.80
2023-01-05T18:38:37.520Z,10.80
2023-01-05T18:41:04.981Z,12.00
2023-01-05T18:43:32.637Z,12.18
2023-01-05T18:45:59.771Z,12.13
2023-01-05T18:48:26.593Z,13.95
2023-01-05T18:50:53.380Z,13.30
2023-01-05T18:53:22.041Z,14.27
2023-01-05T18:55:49.302Z,13.77
2023-01-05T18:58:15.988Z,14.60
2023-01-05T19:00:44.503Z,13.60
2023-01-05T19:03:11.499Z,13.68
2023-01-05T19:05:40.783Z,14.35
2023-01-05T19:08:09.399Z,13.63
2023-01-05T19:10:36.891Z,13.48
2023-01-05T19:13:04.140Z,14.73
2023-01-05T19:15:33.449Z,13.15
2023-01-05T19:18:00.185Z,12.82
2023-01-05T19:20:27.019Z,14.50
2023-01-05T19:22:53.675Z,13.05
2023-01-05T19:25:20.428Z,14.13
2023-01-05T19:27:47.234Z,14.00
2023-01-05T19:30:16.205Z,14.35
2023-01-05T19:32:43.098Z,13.35
2023-01-05T19:35:09.881Z,14.52
2023-01-05T19:37:39.046Z,14.65
2023-01-05T19:40:06.420Z,16.52
2023-01-05T19:42:33.137Z,19.88
2023-01-05T19:45:00.093Z,22.08
2023-01-05T19:47:26.975Z,23.58
2023-01-05T19:49:53.682Z,19.42
2023-01-05T19:52:20.616Z,19.65
2023-01-05T19:54:47.687Z,15.27
2023-01-05T19:57:14.417Z,15.23
2023-01-05T19:59:41.077Z,14.88
2023-01-05T20:02:08.176Z,16.08
2023-01-05T20:04:35.216Z,16.40
2023-01-05T20:07:03.909Z,15.85
2023-01-05T20:09:31.177Z,15.55
2023-01-05T20:12:09.105Z,15.85
2023-01-05T20:14:39.716Z,16.13
2023-01-05T20:17:09.265Z,16.65
2023-01-05T20:19:37.469Z,16.65
2023-01-05T20:22:05.728Z,18.10
2023-01-05T20:24:36.332Z,17.83
2023-01-05T20:27:08.184Z,19.50
2023-01-05T20:29:35.695Z,18.92
2023-01-05T20:32:09.198Z,21.02
2023-01-05T20:34:38.366Z,20.45
2023-01-05T20:37:07.861Z,23.48
2023-01-05T20:39:35.844Z,24.98
2023-01-05T20:42:05.938Z,22.63
2023-01-05T20:44:35.669Z,21.63
2023-01-05T20:47:03.639Z,20.10
2023-01-05T20:49:31.114Z,19.08
2023-01-05T20:51:58.345Z,16.73
2023-01-05T20:54:26.058Z,16.50
2023-01-05T20:56:52.948Z,15.93
2023-01-05T20:59:30.457Z,15.48
2023-01-05T21:01:58.196Z,16.05
2023-01-05T21:04:26.659Z,14.20
2023-01-05T21:06:59.313Z,13.93
2023-01-05T21:09:29.025Z,13.63
2023-01-05T21:11:55.796Z,15.13
2023-01-05T21:14:22.584Z,14.90
2023-01-05T21:16:51.588Z,13.80
2023-01-05T21:19:21.941Z,13.00
2023-01-05T21:21:54.819Z,13.02
2023-01-05T21:24:22.526Z,11.07
2023-01-05T21:26:49.831Z,10.80
2023-01-05T21:29:19.240Z,9.95
2023-01-05T21:31:46.428Z,9.50
2023-01-05T21:34:13.904Z,9.40
2023-01-05T21:36:44.842Z,8.32
2023-01-05T21:39:17.361Z,8.60
2023-01-05T21:42:02.944Z,8.45
2023-01-05T21:44:29.889Z,8.35
2023-01-05T21:46:56.669Z,8.57
2023-01-05T21:49:23.390Z,7.47
2023-01-05T21:52:08.922Z,8.05
2023-01-05T21:54:54.508Z,7.18
2023-01-05T21:57:21.623Z,8.30
2023-01-05T21:59:48.383Z,8.02
2023-01-05T22:02:15.575Z,7.82
2023-01-05T22:04:43.108Z,7.07
2023-01-05T22:07:10.406Z,7.60
2023-01-05T22:09:37.868Z,6.50
2023-01-05T22:12:08.966Z,6.63
2023-01-05T22:14:39.032Z,5.90
2023-01-05T22:17:07.375Z,5.35
2023-01-05T22:19:34.743Z,5.47
2023-01-05T22:22:01.467Z,4.38
2023-01-05T22:24:28.273Z,4.30
2023-01-05T22:26:55.000Z,4.93
2023-01-05T22:29:21.911Z,5.15
2023-01-05T22:31:50.716Z,5.03
2023-01-05T22:34:17.688Z,4.53
2023-01-05T22:36:44.694Z,4.47
2023-01-05T22:39:12.234Z,4.43
2023-01-05T22:41:39.044Z,4.18
2023-01-05T22:44:06.098Z,3.88
2023-01-05T22:46:33.232Z,4.40
2023-01-05T22:49:00.275Z,4.25
2023-01-05T22:51:30.101Z,4.00
2023-01-05T22:53:58.172Z,3.92
2023-01-05T22:56:26.608Z,3.75
2023-01-05T22:58:55.616Z,3.83
2023-01-05T23:01:23.550Z,3.60
2023-01-05T23:03:51.425Z,3.92
2023-01-05T23:06:18.815Z,3.58
2023-01-05T23:08:47.026Z,3.80
2023-01-05T23:11:16.248Z,3.83
2023-01-05T23:13:43.718Z,3.47
2023-01-05T23:16:11.297Z,3.67
2023-01-05T23:18:39.149Z,3.65
2023-01-05T23:21:10.978Z,3.75
2023-01-05T23:23:38.643Z,4.93
2023-01-05T23:26:06.955Z,5.50
2023-01-05T23:28:34.530Z,4.18
2023-01-05T23:31:01.540Z,4.30
2023-01-05T23:33:31.645Z,4.55
2023-01-05T23:35:58.364Z,4.13
2023-01-05T23:38:26.198Z,4.05
2023-01-05T23:40:54.547Z,4.00
2023-01-05T23:43:26.338Z,3.72
2023-01-05T23:46:00.171Z,3.45
2023-01-05T23:48:27.522Z,3.20
2023-01-05T23:50:55.337Z,3.00
2023-01-05T23:53:22.752Z,3.20
2023-01-05T23:55:49.448Z,3.33
2023-01-05T23:58:16.378Z,2.95
